Latest Weather Observations for Nambour

IDQ60901

Issued at 7:31 am EST Monday 8 February 2016 (issued every 10 minutes, with the page automatically refreshed every 10 minutes)

About weather observations | Map of Brisbane area stations | Latest observations for Brisbane area | Other Formats
Station Details ID: 040988 Name: NAMBOUR DAFF - HILLSIDE Lat: -26.64 Lon: 152.94 Height: 53.24 m
Data from the previous 72 hours. | See also: Recent months at Nambour
Date/Time
EST
Tmp

°C
App
Tmp
°C
Dew
Point
°C
Rel
Hum
%
Delta-T

°C
Wind Press
QNH
hPa
Press
MSL
hPa
Rain
since
9 am
mm
Dir
 
Spd
km/h
Gust
km/h
Spd
kts
Gust
kts
08/07:30am 23.8 24.7 16.1 62 4.7 SE 6 13 3 7 1015.4 1015.1 0.8
08/07:00am 22.6 23.6 15.4 64 4.3 WNW 4 11 2 6 1015.1 1014.8 0.8
08/06:30am 22.9 24.5 16.0 65 4.2 SSE 2 9 1 5 1015.0 1014.7 0.8
08/06:00am 21.7 22.8 15.5 68 3.7 WNW 4 6 2 3 1014.9 1014.6 0.8
08/05:30am 21.6 22.6 15.4 68 3.7 ENE 4 9 2 5 1014.2 1013.9 0.8
08/05:00am 21.4 22.5 15.5 69 3.5 W 4 9 2 5 1013.9 1013.6 0.8
08/04:30am 21.6 22.7 15.7 69 3.5 E 4 9 2 5 1013.9 1013.6 0.8
08/04:00am 21.6 23.3 16.1 71 3.3 WNW 2 11 1 6 1014.0 1013.7 0.8
08/03:30am 21.3 22.9 16.0 72 3.2 NE 2 6 1 3 1014.2 1013.9 0.8
08/03:00am 21.4 23.0 15.9 71 3.3 SW 2 4 1 2 1014.2 1013.9 0.8
08/02:30am 21.6 23.2 15.9 70 3.4 WSW 2 6 1 3 1014.3 1014.0 0.8
08/02:00am 22.0 23.7 16.3 70 3.5 WSW 2 7 1 4 1014.3 1014.0 0.8
08/01:30am 22.0 23.8 16.5 71 3.3 E 2 9 1 5 1014.3 1014.0 0.8
08/01:00am 22.1 24.0 16.8 72 3.2 NW 2 6 1 3 1014.5 1014.2 0.8
08/12:30am 22.3 24.1 17.4 74 3.0 ENE 4 13 2 7 1014.8 1014.5 0.8
08/12:00am 22.6 25.0 17.9 75 2.9 WSW 2 6 1 3 1015.2 1014.9 0.8
 
Date/Time
EST
Tmp

°C
App
Tmp
°C
Dew
Point
°C
Rel
Hum
%
Delta-T

°C
Wind Press
QNH
hPa
Press
MSL
hPa
Rain
since
9 am
mm
Dir
 
Spd
km/h
Gust
km/h
Spd
kts
Gust
kts
07/11:30pm 22.8 25.3 18.1 75 2.9 SSW 2 6 1 3 1015.3 1015.0 0.8
07/11:00pm 22.6 25.5 18.2 76 2.8 CALM 0 2 0 1 1015.5 1015.2 0.8
07/10:30pm 22.5 25.1 18.3 77 2.6 W 2 4 1 2 1015.4 1015.1 0.8
07/10:00pm 22.4 25.3 18.2 77 2.6 CALM 0 0 0 0 1015.2 1014.9 0.8
07/09:30pm 22.6 25.5 18.2 76 2.8 CALM 0 4 0 2 1015.1 1014.8 0.8
07/09:00pm 22.7 25.5 18.0 75 2.9 CALM 0 4 0 2 1015.1 1014.8 0.8
07/08:30pm 22.6 24.6 17.9 75 2.9 WSW 4 6 2 3 1014.9 1014.6 0.8
07/08:00pm 22.9 25.3 18.0 74 3.1 E 2 6 1 3 1014.6 1014.3 0.8
07/07:30pm 23.0 25.2 18.3 75 3.0 E 4 9 2 5 1014.4 1014.1 0.8
07/07:00pm 22.8 25.7 18.3 76 2.8 CALM 0 4 0 2 1014.3 1014.0 0.8
07/06:30pm 23.4 26.1 18.7 75 3.0 SSE 2 6 1 3 1013.9 1013.6 0.8
07/06:00pm 23.7 26.6 19.0 75 3.0 SE 2 6 1 3 1013.6 1013.3 0.8
07/05:30pm 23.5 26.5 19.2 77 2.7 E 2 9 1 5 1013.3 1013.0 0.8
07/05:00pm 23.1 25.7 19.3 79 2.4 WNW 4 7 2 4 1013.0 1012.7 0.8
07/04:30pm 24.2 26.4 19.3 74 3.1 SE 6 17 3 9 1012.5 1012.2 0.8
07/04:00pm 24.7 27.4 19.5 73 3.3 SE 4 13 2 7 1012.4 1012.1 0.8
07/03:30pm 24.6 27.1 19.9 75 3.0 SE 6 15 3 8 1012.3 1012.0 0.8
07/03:00pm 24.2 27.2 20.9 82 2.2 ESE 6 11 3 6 1012.3 1012.0 0.8
07/02:30pm 24.3 26.4 19.4 74 3.1 ESE 7 26 4 14 1012.5 1012.2 0.2
07/02:00pm 24.6 27.2 20.1 76 2.9 ESE 6 13 3 7 1012.8 1012.5 0.2
07/01:30pm 24.0 26.3 19.5 76 2.9 ESE 6 17 3 9 1013.0 1012.7 0.2
07/01:00pm 24.1 26.6 19.8 77 2.8 E 6 15 3 8 1013.1 1012.8 0.0
07/12:30pm 24.9 27.7 20.4 76 2.9 SE 6 15 3 8 1012.9 1012.6 0.0
07/12:00pm 26.2 28.4 19.1 65 4.6 SE 6 15 3 8 1012.9 1012.6 0.0
07/11:30am 25.5 27.5 19.9 71 3.6 ESE 9 19 5 10 1013.0 1012.7 0.0
07/11:00am 25.3 27.3 19.2 69 3.9 ESE 7 19 4 10 1013.0 1012.7 0.0
07/10:30am 24.8 26.2 18.7 69 3.9 SE 9 19 5 10 1013.1 1012.8 0.0
07/10:00am 24.9 26.9 19.1 70 3.7 ESE 7 19 4 10 1013.2 1012.9 0.0
07/09:30am 24.5 26.2 18.4 69 3.9 SE 7 19 4 10 1013.3 1013.0 0.0
07/09:00am 24.7 26.6 18.9 70 3.7 SSE 7 17 4 9 1013.1 1012.8 4.4
07/08:30am 24.3 26.2 18.9 72 3.4 SSE 7 17 4 9 1013.1 1012.8 4.4
07/08:00am 24.1 26.1 18.7 72 3.4 ESE 6 13 3 7 1013.0 1012.7 4.4
07/07:30am 23.6 26.0 18.9 75 3.0 SW 4 13 2 7 1012.9 1012.6 4.4
07/07:00am 22.7 24.7 18.7 78 2.5 ESE 6 19 3 10 1012.8 1012.5 4.4
07/06:30am 22.3 24.8 19.1 82 2.0 NNW 4 7 2 4 1012.6 1012.3 4.4
07/06:00am 22.3 24.9 19.3 83 1.9 W 4 9 2 5 1012.5 1012.2 4.4
07/05:30am 22.5 25.1 19.3 82 2.0 S 4 11 2 6 1011.9 1011.6 4.4
07/05:00am 22.7 25.4 19.5 82 2.0 SSE 4 11 2 6 1011.3 1011.0 4.4
07/04:30am 22.8 25.9 19.6 82 2.1 W 2 6 1 3 1011.1 1010.8 4.4
07/04:00am 22.7 26.1 19.3 81 2.2 CALM 0 4 0 2 1010.8 1010.5 4.4
07/03:30am 22.9 26.3 19.3 80 2.3 CALM 0 6 0 3 1010.9 1010.6 4.4
07/03:00am 22.9 25.8 19.1 79 2.4 N 2 4 1 2 1010.9 1010.6 4.4
07/02:30am 22.6 25.5 19.0 80 2.3 SW 2 4 1 2 1010.9 1010.6 4.4
07/02:00am 22.6 25.8 18.8 79 2.4 CALM 0 4 0 2 1011.0 1010.7 4.4
07/01:30am 22.8 26.0 18.8 78 2.5 CALM 0 0 0 0 1011.1 1010.8 4.4
07/01:00am 22.9 25.8 19.1 79 2.4 W 2 9 1 5 1011.3 1011.0 4.4
07/12:30am 22.9 26.4 19.5 81 2.2 CALM 0 4 0 2 1011.4 1011.1 4.4
07/12:00am 23.0 26.1 19.6 81 2.2 SE 2 7 1 4 1011.8 1011.5 4.4
 
Date/Time
EST
Tmp

°C
App
Tmp
°C
Dew
Point
°C
Rel
Hum
%
Delta-T

°C
Wind Press
QNH
hPa
Press
MSL
hPa
Rain
since
9 am
mm
Dir
 
Spd
km/h
Gust
km/h
Spd
kts
Gust
kts
06/11:30pm 23.1 26.4 19.9 82 2.1 SW 2 6 1 3 1012.1 1011.8 4.4
06/11:00pm 23.1 26.4 19.9 82 2.1 W 2 6 1 3 1012.3 1012.0 4.4
06/10:30pm 23.2 26.6 20.2 83 1.9 NNE 2 6 1 3 1012.6 1012.3 4.4
06/10:00pm 23.1 26.5 20.2 84 1.9 E 2 6 1 3 1013.0 1012.7 4.4
06/09:30pm 23.1 26.9 20.1 83 1.9 CALM 0 4 0 2 1012.8 1012.5 4.4
06/09:00pm 23.1 26.9 20.1 83 1.9 CALM 0 2 0 1 1012.5 1012.2 4.4
06/08:30pm 23.2 26.8 19.8 81 2.2 CALM 0 2 0 1 1012.3 1012.0 4.4
06/08:00pm 23.7 27.2 19.6 78 2.6 CALM 0 6 0 3 1011.9 1011.6 4.4
06/07:30pm 24.2 27.0 19.7 76 2.9 ESE 4 9 2 5 1011.4 1011.1 4.2
06/07:00pm 24.3 27.5 19.8 76 2.9 SE 2 7 1 4 1011.0 1010.7 4.2
06/06:30pm 24.5 27.4 19.8 75 3.0 ESE 4 11 2 6 1010.6 1010.3 4.2
06/06:00pm 24.6 26.3 19.4 73 3.3 ESE 9 20 5 11 1010.2 1009.9 4.2
06/05:30pm 25.2 27.4 19.3 70 3.8 ESE 6 17 3 9 1009.8 1009.5 4.2
06/05:00pm 25.3 26.6 19.2 69 3.9 ESE 11 22 6 12 1009.5 1009.2 4.2
06/04:30pm 25.7 27.4 19.3 67 4.1 ESE 9 19 5 10 1009.3 1009.0 4.2
06/04:00pm 25.8 27.3 19.7 69 4.0 ESE 11 20 6 11 1009.3 1009.0 4.2
06/03:30pm 25.8 26.9 19.7 69 4.0 ESE 13 24 7 13 1009.3 1009.0 4.2
06/03:00pm 26.0 27.3 19.4 67 4.3 ESE 11 19 6 10 1009.3 1009.0 3.8
06/02:30pm 26.3 27.8 19.7 67 4.3 ESE 11 24 6 13 1009.4 1009.1 3.8
06/02:00pm 27.1 28.0 19.2 62 5.1 ESE 13 28 7 15 1009.5 1009.2 3.8
06/01:30pm 27.0 27.6 19.4 63 4.9 ESE 15 32 8 17 1009.7 1009.4 3.8
06/01:00pm 27.3 28.6 19.4 62 5.1 E 11 20 6 11 1009.7 1009.4 3.8
06/12:30pm 26.9 28.8 20.5 68 4.2 ESE 11 19 6 10 1010.0 1009.7 3.8
06/12:00pm 26.7 28.1 20.3 68 4.2 ESE 13 32 7 17 1010.3 1010.0 3.8
06/11:30am 24.0 26.2 20.5 81 2.3 SE 9 15 5 8 1010.6 1010.3 3.8
06/11:00am 26.7 28.4 21.0 71 3.8 ESE 13 22 7 12 1010.7 1010.4 2.0
06/10:30am 23.8 26.6 21.5 87 1.5 ESE 9 24 5 13 1011.0 1010.7 2.0
06/10:00am 25.4 28.6 21.7 80 2.5 ESE 7 11 4 6 1011.0 1010.7 0.4
06/09:30am 23.8 26.3 20.3 81 2.3 SSE 7 20 4 11 1011.2 1010.9 0.2
06/09:00am 23.8 27.6 22.4 92 0.9 SE 6 13 3 7 1011.1 1010.8 9.2
06/08:30am 24.4 28.3 21.9 86 1.7 ESE 4 13 2 7 1010.6 1010.3 8.8
06/08:00am 23.1 27.5 22.1 94 0.7 W 2 6 1 3 1010.7 1010.4 8.4
06/07:30am 22.6 26.4 21.6 94 0.7 SE 4 7 2 4 1010.5 1010.2 8.4
06/07:00am 22.3 26.2 21.1 93 0.8 W 2 6 1 3 1010.4 1010.1 7.8
06/06:30am 22.3 25.9 21.3 94 0.7 S 4 7 2 4 1010.0 1009.7 7.8
06/06:00am 21.9 25.8 21.1 95 0.5 W 2 6 1 3 1009.5 1009.2 7.4
06/05:30am 21.7 25.1 20.9 95 0.5 S 4 9 2 5 1009.2 1008.9 7.4
06/05:00am 21.7 24.7 20.9 95 0.5 E 6 9 3 5 1008.7 1008.4 7.2
06/04:30am 21.5 24.4 20.7 95 0.5 E 6 7 3 4 1008.6 1008.3 6.8
06/04:00am 21.7 25.0 20.7 94 0.7 SSW 4 9 2 5 1008.3 1008.1 5.0
06/03:30am 21.9 25.3 20.9 94 0.7 NW 4 13 2 7 1008.1 1007.9 4.8
06/03:00am 22.0 25.4 21.0 94 0.7 E 4 13 2 7 1008.0 1007.8 4.6
06/02:30am 22.1 25.6 21.1 94 0.7 SE 4 11 2 6 1008.3 1008.1 4.6
06/02:00am 22.0 25.4 21.0 94 0.7 ESE 4 13 2 7 1008.5 1008.2 4.4
06/01:30am 22.1 26.0 21.1 94 0.7 SE 2 7 1 4 1008.7 1008.4 4.0
06/01:00am 22.3 25.8 21.1 93 0.8 SE 4 11 2 6 1009.1 1008.8 2.4
06/12:30am 22.3 25.8 21.1 93 0.8 ENE 4 9 2 5 1009.3 1009.0 2.4
06/12:00am 22.4 26.2 21.0 92 0.9 SE 2 7 1 4 1009.6 1009.3 2.0
 
Date/Time
EST
Tmp

°C
App
Tmp
°C
Dew
Point
°C
Rel
Hum
%
Delta-T

°C
Wind Press
QNH
hPa
Press
MSL
hPa
Rain
since
9 am
mm
Dir
 
Spd
km/h
Gust
km/h
Spd
kts
Gust
kts
05/11:30pm 22.6 25.7 21.1 91 1.0 E 6 11 3 6 1010.1 1009.8 2.0
05/11:00pm 22.8 26.3 21.1 90 1.1 SE 4 7 2 4 1010.5 1010.2 1.8
05/10:30pm 22.8 26.1 21.4 92 0.9 E 6 13 3 7 1010.3 1010.0 1.8
05/10:00pm 22.6 26.6 21.4 93 0.8 E 2 6 1 3 1010.4 1010.1 1.8
05/09:30pm 22.6 26.1 21.1 91 1.0 ESE 4 13 2 7 1010.4 1010.1 1.8
05/09:00pm 22.8 26.5 20.7 88 1.4 E 2 6 1 3 1010.6 1010.3 0.2
05/08:30pm 22.8 25.9 20.3 86 1.6 S 4 11 2 6 1010.5 1010.2 0.2
05/08:00pm 23.2 26.2 20.9 87 1.5 S 6 13 3 7 1010.0 1009.7 0.2
05/07:30pm 23.3 26.5 20.4 84 1.9 ENE 4 7 2 4 1009.6 1009.3 0.2
05/07:00pm 23.4 25.9 20.2 82 2.1 SE 7 17 4 9 1009.1 1008.8 0.2
05/06:30pm 23.4 25.8 20.0 81 2.2 SE 7 17 4 9 1009.0 1008.7 0.2
05/06:00pm 23.7 26.3 20.0 80 2.4 ESE 6 13 3 7 1008.7 1008.4 0.2
05/05:30pm 23.3 26.0 20.2 83 2.0 SE 6 19 3 10 1008.6 1008.3 0.2
05/05:00pm 23.4 26.0 20.0 81 2.2 ESE 6 15 3 8 1008.1 1007.9 0.2
05/04:30pm 23.8 26.2 20.1 80 2.4 SE 7 15 4 8 1008.1 1007.9 0.0
05/04:00pm 23.9 26.4 20.2 80 2.4 ESE 7 22 4 12 1008.0 1007.8 0.0
05/03:30pm 24.0 26.4 20.1 79 2.5 SSE 7 24 4 13 1007.8 1007.6 0.0
05/03:00pm 24.9 27.1 19.7 73 3.4 ESE 7 20 4 11 1007.8 1007.6 0.0
05/02:30pm 25.6 27.8 19.5 69 3.9 SE 7 19 4 10 1007.9 1007.7 0.0
05/02:00pm 26.3 27.6 19.2 65 4.6 ESE 11 20 6 11 1008.1 1007.9 0.0
05/01:30pm 26.2 28.5 19.8 68 4.2 ESE 7 17 4 9 1008.3 1008.1 0.0
05/01:00pm 26.2 28.4 19.6 67 4.3 ESE 7 15 4 8 1008.6 1008.3 0.0
05/12:30pm 26.0 27.7 19.4 67 4.3 SE 9 17 5 9 1008.6 1008.3 0.0
05/12:00pm 26.1 28.3 19.7 68 4.2 SE 7 17 4 9 1008.9 1008.6 0.0
05/11:30am 25.5 27.7 19.6 70 3.8 ESE 7 17 4 9 1009.1 1008.8 0.0
05/11:00am 25.3 27.7 19.7 71 3.6 SE 6 15 3 8 1009.3 1009.0 0.0
05/10:30am 24.7 26.2 18.9 70 3.7 SE 9 17 5 9 1009.6 1009.3 0.0
05/10:00am 24.9 26.7 18.8 69 3.9 ESE 7 15 4 8 1009.5 1009.2 0.0
05/09:30am 24.8 26.7 19.0 70 3.7 SE 7 19 4 10 1009.2 1008.9 0.0
05/09:00am 25.4 27.7 19.5 70 3.8 SE 6 15 3 8 1009.0 1008.7 7.8
05/08:30am 24.9 27.2 19.5 72 3.5 SSE 6 11 3 6 1009.0 1008.7 7.8
05/08:00am 24.1 26.2 19.0 73 3.3 SSE 6 13 3 7 1008.8 1008.5 7.8

Latest Capital City Observations: Canberra | Sydney | Melbourne | Brisbane | Adelaide | Perth | Hobart | Darwin

Other Formats:

Comma delimited format used in spreadsheet applications
http://www.bom.gov.au/fwo/IDQ60901/IDQ60901.95572.axf

JavaScript Object Notation format (JSON) in row-major order
http://www.bom.gov.au/fwo/IDQ60901/IDQ60901.95572.json